sensor_id;sensor_type;location;lat;lon;timestamp;pressure;altitude;pressure_sealevel;temperature;humidity
64886;BME280;51514;52.206;5.114;2023-01-29T00:01:04;103051.44;;;5.39;77.95
64886;BME280;51514;52.206;5.114;2023-01-29T00:03:30;103055.94;;;5.39;78.14
64886;BME280;51514;52.206;5.114;2023-01-29T00:05:55;103053.31;;;5.37;78.22
64886;BME280;51514;52.206;5.114;2023-01-29T00:08:21;103041.63;;;5.40;78.26
64886;BME280;51514;52.206;5.114;2023-01-29T00:10:46;103036.41;;;5.37;78.38
64886;BME280;51514;52.206;5.114;2023-01-29T00:13:12;103042.63;;;5.37;77.92
64886;BME280;51514;52.206;5.114;2023-01-29T00:15:37;103039.81;;;5.40;78.06
64886;BME280;51514;52.206;5.114;2023-01-29T00:18:02;103044.13;;;5.43;78.31
64886;BME280;51514;52.206;5.114;2023-01-29T00:20:28;103048.34;;;5.48;77.91
64886;BME280;51514;52.206;5.114;2023-01-29T00:22:53;103044.66;;;5.51;77.99
64886;BME280;51514;52.206;5.114;2023-01-29T00:25:18;103054.31;;;5.54;77.96
64886;BME280;51514;52.206;5.114;2023-01-29T00:27:44;103049.69;;;5.57;77.42
64886;BME280;51514;52.206;5.114;2023-01-29T00:30:10;103050.13;;;5.67;77.66
64886;BME280;51514;52.206;5.114;2023-01-29T00:32:40;103054.34;;;5.72;76.80
64886;BME280;51514;52.206;5.114;2023-01-29T00:35:07;103040.84;;;5.74;76.68
64886;BME280;51514;52.206;5.114;2023-01-29T00:37:33;103044.41;;;5.74;76.88
64886;BME280;51514;52.206;5.114;2023-01-29T00:39:58;103037.41;;;5.72;76.71
64886;BME280;51514;52.206;5.114;2023-01-29T00:42:24;103025.09;;;5.68;76.71
64886;BME280;51514;52.206;5.114;2023-01-29T00:45:09;103026.97;;;5.66;77.07
64886;BME280;51514;52.206;5.114;2023-01-29T00:47:34;103023.69;;;5.61;77.15
64886;BME280;51514;52.206;5.114;2023-01-29T00:50:02;103028.16;;;5.60;77.38
64886;BME280;51514;52.206;5.114;2023-01-29T00:52:28;103022.50;;;5.66;77.40
64886;BME280;51514;52.206;5.114;2023-01-29T00:54:58;103016.28;;;5.66;77.10
64886;BME280;51514;52.206;5.114;2023-01-29T00:57:25;103016.28;;;5.66;76.94
64886;BME280;51514;52.206;5.114;2023-01-29T00:59:51;103023.22;;;5.70;76.94
64886;BME280;51514;52.206;5.114;2023-01-29T01:02:17;103014.88;;;5.76;76.77
64886;BME280;51514;52.206;5.114;2023-01-29T01:05:02;103010.34;;;5.78;76.93
64886;BME280;51514;52.206;5.114;2023-01-29T01:07:28;103005.72;;;5.81;76.76
64886;BME280;51514;52.206;5.114;2023-01-29T01:09:54;103008.47;;;5.80;76.69
64886;BME280;51514;52.206;5.114;2023-01-29T01:12:38;103014.75;;;5.79;77.14
64886;BME280;51514;52.206;5.114;2023-01-29T01:15:04;103013.09;;;5.76;76.61
64886;BME280;51514;52.206;5.114;2023-01-29T01:17:29;103013.00;;;5.78;76.69
64886;BME280;51514;52.206;5.114;2023-01-29T01:19:55;103017.44;;;5.79;76.67
64886;BME280;51514;52.206;5.114;2023-01-29T01:22:20;103014.81;;;5.77;76.30
64886;BME280;51514;52.206;5.114;2023-01-29T01:24:45;103021.03;;;5.78;76.54
64886;BME280;51514;52.206;5.114;2023-01-29T01:27:11;103031.75;;;5.78;76.53
64886;BME280;51514;52.206;5.114;2023-01-29T01:29:36;103032.75;;;5.75;76.44
64886;BME280;51514;52.206;5.114;2023-01-29T01:32:03;103034.44;;;5.78;76.61
64886;BME280;51514;52.206;5.114;2023-01-29T01:34:30;103027.47;;;5.74;76.77
64886;BME280;51514;52.206;5.114;2023-01-29T01:36:55;103018.69;;;5.72;76.50
64886;BME280;51514;52.206;5.114;2023-01-29T01:39:21;103020.47;;;5.71;76.44
64886;BME280;51514;52.206;5.114;2023-01-29T01:41:47;103025.84;;;5.71;76.67
64886;BME280;51514;52.206;5.114;2023-01-29T01:44:51;103021.63;;;5.66;76.83
64886;BME280;51514;52.206;5.114;2023-01-29T01:50:02;103020.84;;;5.64;76.76
64886;BME280;51514;52.206;5.114;2023-01-29T01:52:32;103025.25;;;5.65;77.06
64886;BME280;51514;52.206;5.114;2023-01-29T01:54:58;103024.44;;;5.63;76.70
64886;BME280;51514;52.206;5.114;2023-01-29T01:57:24;103030.91;;;5.59;76.79
64886;BME280;51514;52.206;5.114;2023-01-29T02:00:01;103027.56;;;5.54;77.05
64886;BME280;51514;52.206;5.114;2023-01-29T02:02:28;103032.16;;;5.52;77.36
64886;BME280;51514;52.206;5.114;2023-01-29T02:05:12;103034.81;;;5.52;77.32
64886;BME280;51514;52.206;5.114;2023-01-29T02:07:57;103029.59;;;5.48;77.31
64886;BME280;51514;52.206;5.114;2023-01-29T02:10:44;103026.06;;;5.48;77.28
64886;BME280;51514;52.206;5.114;2023-01-29T02:13:10;103020.66;;;5.49;77.50
64886;BME280;51514;52.206;5.114;2023-01-29T02:15:37;103019.84;;;5.47;77.20
64886;BME280;51514;52.206;5.114;2023-01-29T02:18:06;103020.78;;;5.46;77.37
64886;BME280;51514;52.206;5.114;2023-01-29T02:20:31;103011.81;;;5.47;77.34
64886;BME280;51514;52.206;5.114;2023-01-29T02:26:05;103018.78;;;5.52;77.32
64886;BME280;51514;52.206;5.114;2023-01-29T02:29:21;103026.69;;;5.53;77.26
64886;BME280;51514;52.206;5.114;2023-01-29T02:31:53;103030.97;;;5.57;77.03
64886;BME280;51514;52.206;5.114;2023-01-29T02:37:28;103027.13;;;5.63;76.87
64886;BME280;51514;52.206;5.114;2023-01-29T02:42:43;103041.03;;;5.71;77.15
64886;BME280;51514;52.206;5.114;2023-01-29T02:45:14;103032.81;;;5.74;76.91
64886;BME280;51514;52.206;5.114;2023-01-29T02:47:58;103030.47;;;5.68;76.52
64886;BME280;51514;52.206;5.114;2023-01-29T02:53:05;103025.97;;;5.68;76.35
64886;BME280;51514;52.206;5.114;2023-01-29T02:58:31;103027.13;;;5.63;76.47
64886;BME280;51514;52.206;5.114;2023-01-29T03:00:59;103020.84;;;5.64;76.82
64886;BME280;51514;52.206;5.114;2023-01-29T03:03:32;103013.53;;;5.67;77.02
64886;BME280;51514;52.206;5.114;2023-01-29T03:06:13;103018.97;;;5.66;76.88
64886;BME280;51514;52.206;5.114;2023-01-29T03:09:03;103007.44;;;5.64;76.73
64886;BME280;51514;52.206;5.114;2023-01-29T03:11:45;103003.84;;;5.65;77.03
64886;BME280;51514;52.206;5.114;2023-01-29T03:14:23;102997.78;;;5.61;76.79
64886;BME280;51514;52.206;5.114;2023-01-29T03:16:51;103012.81;;;5.64;76.65
64886;BME280;51514;52.206;5.114;2023-01-29T03:21:56;103008.09;;;5.69;77.03
64886;BME280;51514;52.206;5.114;2023-01-29T03:27:15;102993.38;;;5.60;77.01
64886;BME280;51514;52.206;5.114;2023-01-29T03:30:02;102991.69;;;5.58;77.16
64886;BME280;51514;52.206;5.114;2023-01-29T03:32:48;102982.16;;;5.52;77.46
64886;BME280;51514;52.206;5.114;2023-01-29T03:35:19;102971.44;;;5.52;77.49
64886;BME280;51514;52.206;5.114;2023-01-29T03:38:01;102974.13;;;5.52;77.58
64886;BME280;51514;52.206;5.114;2023-01-29T03:40:38;102972.63;;;5.46;77.58
64886;BME280;51514;52.206;5.114;2023-01-29T03:46:22;102974.81;;;5.38;77.79
64886;BME280;51514;52.206;5.114;2023-01-29T03:49:01;102966.06;;;5.35;78.12
64886;BME280;51514;52.206;5.114;2023-01-29T03:51:42;102958.91;;;5.35;78.40
64886;BME280;51514;52.206;5.114;2023-01-29T03:54:18;102961.63;;;5.34;78.28
64886;BME280;51514;52.206;5.114;2023-01-29T03:56:56;102962.50;;;5.34;78.00
64886;BME280;51514;52.206;5.114;2023-01-29T03:59:37;102962.44;;;5.36;78.39
64886;BME280;51514;52.206;5.114;2023-01-29T04:02:19;102959.03;;;5.32;78.08
64886;BME280;51514;52.206;5.114;2023-01-29T04:04:56;102956.34;;;5.32;78.44
64886;BME280;51514;52.206;5.114;2023-01-29T04:07:24;102956.94;;;5.39;78.32
64886;BME280;51514;52.206;5.114;2023-01-29T04:09:55;102956.00;;;5.40;78.31
64886;BME280;51514;52.206;5.114;2023-01-29T04:12:28;102947.25;;;5.36;78.40
64886;BME280;51514;52.206;5.114;2023-01-29T04:14:57;102952.69;;;5.35;78.42
64886;BME280;51514;52.206;5.114;2023-01-29T04:17:33;102951.94;;;5.31;78.37
64886;BME280;51514;52.206;5.114;2023-01-29T04:20:00;102949.50;;;5.27;78.71
64886;BME280;51514;52.206;5.114;2023-01-29T04:22:37;102950.38;;;5.27;78.76
64886;BME280;51514;52.206;5.114;2023-01-29T04:25:06;102954.94;;;5.25;78.82
64886;BME280;51514;52.206;5.114;2023-01-29T04:28:03;102941.84;;;5.19;79.12
64886;BME280;51514;52.206;5.114;2023-01-29T04:30:57;102935.03;;;5.12;79.44
64886;BME280;51514;52.206;5.114;2023-01-29T04:42:37;102920.25;;;5.05;79.68
64886;BME280;51514;52.206;5.114;2023-01-29T04:50:19;102915.25;;;5.16;79.43
64886;BME280;51514;52.206;5.114;2023-01-29T04:53:09;102913.38;;;5.18;78.83
64886;BME280;51514;52.206;5.114;2023-01-29T04:55:50;102911.63;;;5.17;79.24
64886;BME280;51514;52.206;5.114;2023-01-29T04:58:31;102907.09;;;5.19;78.95
64886;BME280;51514;52.206;5.114;2023-01-29T05:00:58;102907.16;;;5.18;78.50
64886;BME280;51514;52.206;5.114;2023-01-29T05:03:25;102904.56;;;5.16;79.08
64886;BME280;51514;52.206;5.114;2023-01-29T05:05:53;102905.56;;;5.13;79.13
64886;BME280;51514;52.206;5.114;2023-01-29T05:08:21;102900.41;;;5.09;79.42
64886;BME280;51514;52.206;5.114;2023-01-29T05:10:49;102897.91;;;5.06;79.68
64886;BME280;51514;52.206;5.114;2023-01-29T05:13:18;102908.59;;;5.06;79.27
64886;BME280;51514;52.206;5.114;2023-01-29T05:15:51;102907.81;;;5.04;79.53
64886;BME280;51514;52.206;5.114;2023-01-29T05:18:18;102909.47;;;5.06;79.70
64886;BME280;51514;52.206;5.114;2023-01-29T05:20:45;102905.69;;;5.10;79.28
64886;BME280;51514;52.206;5.114;2023-01-29T05:23:16;102913.66;;;5.12;79.15
64886;BME280;51514;52.206;5.114;2023-01-29T05:25:43;102902.88;;;5.13;79.02
64886;BME280;51514;52.206;5.114;2023-01-29T05:28:09;102901.09;;;5.14;78.88
64886;BME280;51514;52.206;5.114;2023-01-29T05:30:46;102901.22;;;5.11;78.91
64886;BME280;51514;52.206;5.114;2023-01-29T05:33:14;102894.94;;;5.12;78.66
64886;BME280;51514;52.206;5.114;2023-01-29T05:35:40;102897.47;;;5.15;78.87
64886;BME280;51514;52.206;5.114;2023-01-29T05:38:06;102895.75;;;5.14;78.72
64886;BME280;51514;52.206;5.114;2023-01-29T05:40:32;102892.84;;;5.19;78.45
64886;BME280;51514;52.206;5.114;2023-01-29T05:42:57;102904.25;;;5.22;78.29
64886;BME280;51514;52.206;5.114;2023-01-29T05:45:23;102904.13;;;5.25;78.42
64886;BME280;51514;52.206;5.114;2023-01-29T05:47:48;102903.16;;;5.26;78.17
64886;BME280;51514;52.206;5.114;2023-01-29T05:50:14;102901.28;;;5.28;77.98
64886;BME280;51514;52.206;5.114;2023-01-29T05:52:40;102899.50;;;5.29;78.23
64886;BME280;51514;52.206;5.114;2023-01-29T05:55:06;102896.88;;;5.27;77.84
64886;BME280;51514;52.206;5.114;2023-01-29T05:57:32;102893.41;;;5.25;78.21
64886;BME280;51514;52.206;5.114;2023-01-29T05:59:57;102882.78;;;5.24;78.15
64886;BME280;51514;52.206;5.114;2023-01-29T06:02:22;102883.88;;;5.20;78.59
64886;BME280;51514;52.206;5.114;2023-01-29T06:04:50;102875.16;;;5.16;78.42
64886;BME280;51514;52.206;5.114;2023-01-29T06:07:17;102874.22;;;5.17;77.92
64886;BME280;51514;52.206;5.114;2023-01-29T06:09:42;102860.84;;;5.17;78.05
64886;BME280;51514;52.206;5.114;2023-01-29T06:12:08;102851.22;;;5.13;78.34
64886;BME280;51514;52.206;5.114;2023-01-29T06:14:33;102860.97;;;5.14;78.02
64886;BME280;51514;52.206;5.114;2023-01-29T06:16:58;102866.31;;;5.14;78.34
64886;BME280;51514;52.206;5.114;2023-01-29T06:19:24;102868.69;;;5.20;78.39
64886;BME280;51514;52.206;5.114;2023-01-29T06:21:49;102859.72;;;5.21;78.02
64886;BME280;51514;52.206;5.114;2023-01-29T06:24:14;102856.28;;;5.19;78.17
64886;BME280;51514;52.206;5.114;2023-01-29T06:26:40;102850.34;;;5.12;78.45
64886;BME280;51514;52.206;5.114;2023-01-29T06:29:05;102848.69;;;5.10;78.37
64886;BME280;51514;52.206;5.114;2023-01-29T06:31:30;102846.00;;;5.10;78.52
64886;BME280;51514;52.206;5.114;2023-01-29T06:33:56;102846.88;;;5.10;78.62
64886;BME280;51514;52.206;5.114;2023-01-29T06:36:21;102846.94;;;5.09;78.52
64886;BME280;51514;52.206;5.114;2023-01-29T06:38:47;102845.38;;;5.05;78.89
64886;BME280;51514;52.206;5.114;2023-01-29T06:41:16;102854.28;;;5.05;79.04
64886;BME280;51514;52.206;5.114;2023-01-29T06:43:45;102860.19;;;5.12;78.41
64886;BME280;51514;52.206;5.114;2023-01-29T06:46:12;102854.09;;;5.08;78.24
64886;BME280;51514;52.206;5.114;2023-01-29T06:48:38;102852.41;;;5.07;78.09
64886;BME280;51514;52.206;5.114;2023-01-29T06:51:05;102857.66;;;5.09;78.23
64886;BME280;51514;52.206;5.114;2023-01-29T06:53:32;102851.66;;;5.04;77.81
64886;BME280;51514;52.206;5.114;2023-01-29T06:55:58;102856.06;;;5.05;78.11
64886;BME280;51514;52.206;5.114;2023-01-29T06:58:23;102848.34;;;4.99;78.56
64886;BME280;51514;52.206;5.114;2023-01-29T07:00:48;102845.84;;;4.96;78.35
64886;BME280;51514;52.206;5.114;2023-01-29T07:03:14;102836.06;;;4.95;78.20
64886;BME280;51514;52.206;5.114;2023-01-29T07:05:39;102836.22;;;4.92;78.69
64886;BME280;51514;52.206;5.114;2023-01-29T07:08:05;102829.94;;;4.93;78.51
64886;BME280;51514;52.206;5.114;2023-01-29T07:10:30;102828.13;;;4.93;78.29
64886;BME280;51514;52.206;5.114;2023-01-29T07:12:58;102834.19;;;4.97;78.71
64886;BME280;51514;52.206;5.114;2023-01-29T07:15:23;102841.41;;;4.95;78.66
64886;BME280;51514;52.206;5.114;2023-01-29T07:17:59;102854.13;;;4.90;78.73
64886;BME280;51514;52.206;5.114;2023-01-29T07:20:26;102854.94;;;4.92;78.28
64886;BME280;51514;52.206;5.114;2023-01-29T07:22:53;102851.38;;;4.91;78.72
64886;BME280;51514;52.206;5.114;2023-01-29T07:25:19;102845.91;;;4.94;78.36
64886;BME280;51514;52.206;5.114;2023-01-29T07:27:44;102853.25;;;4.89;78.37
64886;BME280;51514;52.206;5.114;2023-01-29T07:30:10;102848.94;;;4.87;78.69
64886;BME280;51514;52.206;5.114;2023-01-29T07:32:35;102850.81;;;4.85;78.66
64886;BME280;51514;52.206;5.114;2023-01-29T07:35:01;102850.81;;;4.85;79.16
64886;BME280;51514;52.206;5.114;2023-01-29T07:37:26;102849.72;;;4.89;79.12
64886;BME280;51514;52.206;5.114;2023-01-29T07:39:52;102846.19;;;4.88;78.78
64886;BME280;51514;52.206;5.114;2023-01-29T07:42:18;102840.13;;;4.85;78.85
64886;BME280;51514;52.206;5.114;2023-01-29T07:44:43;102834.53;;;4.89;78.84
64886;BME280;51514;52.206;5.114;2023-01-29T07:47:08;102829.38;;;4.86;78.82
64886;BME280;51514;52.206;5.114;2023-01-29T07:49:34;102829.44;;;4.85;79.15
64886;BME280;51514;52.206;5.114;2023-01-29T07:51:59;102827.41;;;4.90;78.51
64886;BME280;51514;52.206;5.114;2023-01-29T07:54:24;102815.91;;;4.88;79.04
64886;BME280;51514;52.206;5.114;2023-01-29T07:56:50;102822.22;;;4.87;78.92
64886;BME280;51514;52.206;5.114;2023-01-29T07:59:15;102808.06;;;4.85;78.66
64886;BME280;51514;52.206;5.114;2023-01-29T08:01:41;102799.19;;;4.84;78.98
64886;BME280;51514;52.206;5.114;2023-01-29T08:04:06;102795.78;;;4.81;78.94
64886;BME280;51514;52.206;5.114;2023-01-29T08:06:31;102797.50;;;4.82;79.11
64886;BME280;51514;52.206;5.114;2023-01-29T08:08:57;102792.31;;;4.78;78.75
64886;BME280;51514;52.206;5.114;2023-01-29T08:11:23;102804.00;;;4.76;79.58
64886;BME280;51514;52.206;5.114;2023-01-29T08:13:49;102806.59;;;4.77;79.25
64886;BME280;51514;52.206;5.114;2023-01-29T08:16:14;102808.25;;;4.80;79.41
64886;BME280;51514;52.206;5.114;2023-01-29T08:18:39;102809.19;;;4.79;79.36
64886;BME280;51514;52.206;5.114;2023-01-29T08:21:08;102810.88;;;4.82;79.41
64886;BME280;51514;52.206;5.114;2023-01-29T08:23:34;102799.25;;;4.83;79.28
64886;BME280;51514;52.206;5.114;2023-01-29T08:26:01;102806.19;;;4.87;78.95
64886;BME280;51514;52.206;5.114;2023-01-29T08:28:26;102812.31;;;4.89;78.85
64886;BME280;51514;52.206;5.114;2023-01-29T08:30:52;102806.88;;;4.90;78.89
64886;BME280;51514;52.206;5.114;2023-01-29T08:33:17;102804.00;;;4.95;78.72
64886;BME280;51514;52.206;5.114;2023-01-29T08:35:47;102797.78;;;4.94;78.59
64886;BME280;51514;52.206;5.114;2023-01-29T08:38:13;102799.66;;;4.92;78.65
64886;BME280;51514;52.206;5.114;2023-01-29T08:40:38;102782.63;;;4.95;79.31
64886;BME280;51514;52.206;5.114;2023-01-29T08:43:06;102786.16;;;4.95;78.65
64886;BME280;51514;52.206;5.114;2023-01-29T08:45:33;102788.66;;;4.98;78.28
64886;BME280;51514;52.206;5.114;2023-01-29T08:47:59;102781.44;;;5.00;78.59
64886;BME280;51514;52.206;5.114;2023-01-29T08:50:24;102784.19;;;4.99;78.38
64886;BME280;51514;52.206;5.114;2023-01-29T08:52:50;102779.56;;;5.02;78.53
64886;BME280;51514;52.206;5.114;2023-01-29T08:55:15;102776.88;;;5.02;77.98
64886;BME280;51514;52.206;5.114;2023-01-29T08:57:41;102783.75;;;5.08;78.03
64886;BME280;51514;52.206;5.114;2023-01-29T09:00:07;102783.81;;;5.06;78.12
64886;BME280;51514;52.206;5.114;2023-01-29T09:02:34;102773.28;;;5.03;78.58
64886;BME280;51514;52.206;5.114;2023-01-29T09:04:59;102774.06;;;5.05;78.74
64886;BME280;51514;52.206;5.114;2023-01-29T09:07:24;102777.59;;;5.06;78.18
64886;BME280;51514;52.206;5.114;2023-01-29T09:09:50;102772.97;;;5.09;78.34
64886;BME280;51514;52.206;5.114;2023-01-29T09:12:15;102774.75;;;5.09;77.98
64886;BME280;51514;52.206;5.114;2023-01-29T09:14:41;102763.91;;;5.12;77.68
64886;BME280;51514;52.206;5.114;2023-01-29T09:17:06;102772.88;;;5.11;78.32
64886;BME280;51514;52.206;5.114;2023-01-29T09:19:31;102767.38;;;5.14;78.25
64886;BME280;51514;52.206;5.114;2023-01-29T09:21:57;102772.75;;;5.14;78.38
64886;BME280;51514;52.206;5.114;2023-01-29T09:24:22;102774.34;;;5.18;78.41
64886;BME280;51514;52.206;5.114;2023-01-29T09:26:47;102777.75;;;5.20;77.87
64886;BME280;51514;52.206;5.114;2023-01-29T09:29:13;102776.59;;;5.26;77.56
64886;BME280;51514;52.206;5.114;2023-01-29T09:31:38;102778.88;;;5.33;77.54
64886;BME280;51514;52.206;5.114;2023-01-29T09:34:03;102783.22;;;5.36;77.59
64886;BME280;51514;52.206;5.114;2023-01-29T09:36:29;102779.75;;;5.34;77.79
64886;BME280;51514;52.206;5.114;2023-01-29T09:38:54;102790.44;;;5.34;77.23
64886;BME280;51514;52.206;5.114;2023-01-29T09:46:53;102781.28;;;5.39;77.16
64886;BME280;51514;52.206;5.114;2023-01-29T09:49:24;102765.28;;;5.38;77.07
64886;BME280;51514;52.206;5.114;2023-01-29T09:51:55;102780.63;;;5.34;77.34
64886;BME280;51514;52.206;5.114;2023-01-29T09:54:25;102770.72;;;5.36;77.02
64886;BME280;51514;52.206;5.114;2023-01-29T09:56:54;102767.91;;;5.39;77.30
64886;BME280;51514;52.206;5.114;2023-01-29T09:59:23;102768.59;;;5.43;77.43
64886;BME280;51514;52.206;5.114;2023-01-29T10:01:54;102766.69;;;5.45;77.55
64886;BME280;51514;52.206;5.114;2023-01-29T10:07:21;102755.22;;;5.43;77.55
64886;BME280;51514;52.206;5.114;2023-01-29T10:12:43;102766.41;;;5.51;76.94
64886;BME280;51514;52.206;5.114;2023-01-29T10:15:41;102757.72;;;5.46;77.65
64886;BME280;51514;52.206;5.114;2023-01-29T10:26:22;102735.06;;;5.36;77.48
64886;BME280;51514;52.206;5.114;2023-01-29T10:28:51;102736.88;;;5.35;77.85
64886;BME280;51514;52.206;5.114;2023-01-29T10:31:29;102718.94;;;5.37;78.29
64886;BME280;51514;52.206;5.114;2023-01-29T10:36:37;102723.19;;;5.41;78.60
64886;BME280;51514;52.206;5.114;2023-01-29T10:39:14;102726.84;;;5.40;77.99
64886;BME280;51514;52.206;5.114;2023-01-29T10:52:32;102712.03;;;5.33;78.49
64886;BME280;51514;52.206;5.114;2023-01-29T11:02:35;102698.00;;;5.45;78.11
64886;BME280;51514;52.206;5.114;2023-01-29T11:05:00;102686.59;;;5.42;78.63
64886;BME280;51514;52.206;5.114;2023-01-29T11:07:26;102694.63;;;5.42;78.81
64886;BME280;51514;52.206;5.114;2023-01-29T11:10:01;102682.97;;;5.43;78.78
64886;BME280;51514;52.206;5.114;2023-01-29T11:12:30;102685.44;;;5.47;78.61
64886;BME280;51514;52.206;5.114;2023-01-29T11:15:04;102679.22;;;5.47;77.97
64886;BME280;51514;52.206;5.114;2023-01-29T11:17:31;102692.34;;;5.52;79.09
64886;BME280;51514;52.206;5.114;2023-01-29T11:19:56;102685.16;;;5.52;78.59
64886;BME280;51514;52.206;5.114;2023-01-29T11:27:33;102674.22;;;5.57;78.83
64886;BME280;51514;52.206;5.114;2023-01-29T11:29:59;102673.06;;;5.62;78.51
64886;BME280;51514;52.206;5.114;2023-01-29T11:32:29;102673.22;;;5.59;78.52
64886;BME280;51514;52.206;5.114;2023-01-29T11:37:42;102661.94;;;5.53;79.27
64886;BME280;51514;52.206;5.114;2023-01-29T11:40:34;102653.31;;;5.47;79.75
64886;BME280;51514;52.206;5.114;2023-01-29T11:45:45;102658.13;;;5.41;79.72
64886;BME280;51514;52.206;5.114;2023-01-29T11:48:19;102645.59;;;5.41;79.78
64886;BME280;51514;52.206;5.114;2023-01-29T11:50:57;102646.25;;;5.46;80.50
64886;BME280;51514;52.206;5.114;2023-01-29T11:53:34;102635.03;;;5.40;80.66
64886;BME280;51514;52.206;5.114;2023-01-29T11:56:04;102626.13;;;5.39;80.85
64886;BME280;51514;52.206;5.114;2023-01-29T11:58:32;102627.06;;;5.38;80.89
64886;BME280;51514;52.206;5.114;2023-01-29T12:00:59;102619.72;;;5.42;80.67
64886;BME280;51514;52.206;5.114;2023-01-29T12:03:54;102618.09;;;5.39;81.28
64886;BME280;51514;52.206;5.114;2023-01-29T12:06:31;102611.69;;;5.42;80.93
64886;BME280;51514;52.206;5.114;2023-01-29T12:08:59;102608.00;;;5.44;80.49
64886;BME280;51514;52.206;5.114;2023-01-29T12:11:33;102612.25;;;5.48;81.02
64886;BME280;51514;52.206;5.114;2023-01-29T12:14:01;102606.91;;;5.48;80.89
64886;BME280;51514;52.206;5.114;2023-01-29T12:16:31;102602.41;;;5.49;80.79
64886;BME280;51514;52.206;5.114;2023-01-29T12:19:08;102592.22;;;5.56;81.01
64886;BME280;51514;52.206;5.114;2023-01-29T12:21:42;102589.56;;;5.56;80.85
64886;BME280;51514;52.206;5.114;2023-01-29T12:24:33;102580.66;;;5.55;81.17
64886;BME280;51514;52.206;5.114;2023-01-29T12:27:15;102569.97;;;5.55;80.92
64886;BME280;51514;52.206;5.114;2023-01-29T12:29:45;102576.03;;;5.59;80.64
64886;BME280;51514;52.206;5.114;2023-01-29T12:35:11;102557.22;;;5.60;81.16
64886;BME280;51514;52.206;5.114;2023-01-29T12:40:59;102542.03;;;5.61;80.88
64886;BME280;51514;52.206;5.114;2023-01-29T12:43:38;102537.44;;;5.63;80.82
64886;BME280;51514;52.206;5.114;2023-01-29T12:46:10;102534.94;;;5.60;81.04
64886;BME280;51514;52.206;5.114;2023-01-29T12:48:38;102526.63;;;5.64;81.15
64886;BME280;51514;52.206;5.114;2023-01-29T12:51:08;102513.00;;;5.69;81.17
64886;BME280;51514;52.206;5.114;2023-01-29T12:53:39;102511.78;;;5.74;81.27
64886;BME280;51514;52.206;5.114;2023-01-29T12:56:10;102506.28;;;5.77;81.21
64886;BME280;51514;52.206;5.114;2023-01-29T12:58:42;102492.44;;;5.85;81.17
64886;BME280;51514;52.206;5.114;2023-01-29T13:01:35;102485.06;;;5.90;81.06
64886;BME280;51514;52.206;5.114;2023-01-29T13:04:08;102475.72;;;5.97;81.31
64886;BME280;51514;52.206;5.114;2023-01-29T13:06:48;102459.47;;;6.00;80.86
64886;BME280;51514;52.206;5.114;2023-01-29T13:09:20;102457.41;;;6.05;81.05
64886;BME280;51514;52.206;5.114;2023-01-29T13:12:02;102453.94;;;6.03;80.38
64886;BME280;51514;52.206;5.114;2023-01-29T13:14:41;102449.78;;;6.13;80.48
64886;BME280;51514;52.206;5.114;2023-01-29T13:17:13;102450.56;;;6.15;80.23
64886;BME280;51514;52.206;5.114;2023-01-29T13:19:44;102441.91;;;6.10;80.26
64886;BME280;51514;52.206;5.114;2023-01-29T13:22:30;102440.00;;;6.12;80.70
64886;BME280;51514;52.206;5.114;2023-01-29T13:24:56;102427.19;;;6.17;80.59
64886;BME280;51514;52.206;5.114;2023-01-29T13:27:29;102422.13;;;6.13;79.82
64886;BME280;51514;52.206;5.114;2023-01-29T13:29:56;102415.91;;;6.12;80.60
64886;BME280;51514;52.206;5.114;2023-01-29T13:32:24;102414.66;;;6.18;80.55
64886;BME280;51514;52.206;5.114;2023-01-29T13:34:51;102403.31;;;6.14;80.09
64886;BME280;51514;52.206;5.114;2023-01-29T13:39:54;102413.81;;;6.17;79.88
64886;BME280;51514;52.206;5.114;2023-01-29T13:42:23;102405.91;;;6.16;79.79
64886;BME280;51514;52.206;5.114;2023-01-29T13:44:54;102402.34;;;6.15;79.87
64886;BME280;51514;52.206;5.114;2023-01-29T13:47:32;102400.72;;;6.13;80.07
64886;BME280;51514;52.206;5.114;2023-01-29T13:50:06;102398.72;;;6.16;80.53
64886;BME280;51514;52.206;5.114;2023-01-29T13:52:44;102388.75;;;6.18;79.82
64886;BME280;51514;52.206;5.114;2023-01-29T14:02:41;102386.84;;;6.20;80.01
64886;BME280;51514;52.206;5.114;2023-01-29T14:07:58;102386.94;;;6.19;79.95
64886;BME280;51514;52.206;5.114;2023-01-29T14:10:26;102384.94;;;6.22;79.77
64886;BME280;51514;52.206;5.114;2023-01-29T14:13:38;102374.22;;;6.22;79.47
64886;BME280;51514;52.206;5.114;2023-01-29T14:15:38;102380.28;;;6.26;79.70
64886;BME280;51514;52.206;5.114;2023-01-29T14:20:40;102373.19;;;6.25;79.64
64886;BME280;51514;52.206;5.114;2023-01-29T14:23:26;102375.44;;;6.17;79.40
64886;BME280;51514;52.206;5.114;2023-01-29T14:25:53;102368.41;;;6.16;79.90
64886;BME280;51514;52.206;5.114;2023-01-29T14:28:22;102366.69;;;6.15;80.04
64886;BME280;51514;52.206;5.114;2023-01-29T14:30:49;102363.69;;;6.19;80.09
64886;BME280;51514;52.206;5.114;2023-01-29T14:33:38;102357.38;;;6.20;80.32
64886;BME280;51514;52.206;5.114;2023-01-29T14:36:13;102361.09;;;6.18;79.47
64886;BME280;51514;52.206;5.114;2023-01-29T14:38:46;102352.97;;;6.19;80.04
64886;BME280;51514;52.206;5.114;2023-01-29T14:41:28;102347.84;;;6.16;80.28
64886;BME280;51514;52.206;5.114;2023-01-29T14:46:58;102336.56;;;6.26;79.66
64886;BME280;51514;52.206;5.114;2023-01-29T14:49:52;102324.13;;;6.25;79.82
64886;BME280;51514;52.206;5.114;2023-01-29T14:52:21;102332.94;;;6.27;79.68
64886;BME280;51514;52.206;5.114;2023-01-29T14:54:49;102328.63;;;6.24;79.89
64886;BME280;51514;52.206;5.114;2023-01-29T14:57:16;102326.78;;;6.25;79.64
64886;BME280;51514;52.206;5.114;2023-01-29T14:59:53;102337.69;;;6.21;80.15
64886;BME280;51514;52.206;5.114;2023-01-29T15:02:26;102337.22;;;6.29;79.74
64886;BME280;51514;52.206;5.114;2023-01-29T15:04:58;102323.16;;;6.26;79.95
64886;BME280;51514;52.206;5.114;2023-01-29T15:07:33;102331.00;;;6.29;80.03
64886;BME280;51514;52.206;5.114;2023-01-29T15:10:15;102323.16;;;6.26;79.74
64886;BME280;51514;52.206;5.114;2023-01-29T15:12:49;102317.03;;;6.23;80.42